Latest Weather Observations for Sheoaks

IDV60801

Issued at 11:32 pm EST Sunday 25 September 2016 (issued every 30 minutes, with the page automatically refreshed every 10 minutes)

About weather observations | Map of weather stations | Latest weather observations for VIC | Other Formats
Station Details ID: 087168 Name: SHEOAKS Lat: -37.91 Lon: 144.13 Height: 236.7 m
Data from the previous 72 hours. | See also: Recent months at Sheoaks
Date/Time
EST
Temp
°C
App
Temp
°C
Dew
Point
°C
Rel
Hum
%
Delta-T
°C
Wind Press
QNH
hPa
Press
MSL
hPa
Rain since
9am
mm
Dir  Spd
km/h
Gust
km/h
Spd
kts
Gust
kts
25/11:30pm 8.8 6.7 5.9 82 1.3 N 6 6 3 3 1013.6 1013.7 0.0
25/11:00pm 9.2 6.9 5.9 80 1.5 NNE 7 11 4 6 1013.7 1013.8 0.0
25/10:30pm 9.1 6.9 6.4 83 1.3 NNE 7 9 4 5 1014.0 1014.1 0.0
25/10:00pm 9.0 8.1 6.1 82 1.3 CALM 0 4 0 2 1014.2 1014.3 0.0
25/09:30pm 8.8 7.4 5.7 81 1.4 ESE 2 2 1 1 1014.3 1014.4 0.0
25/09:00pm 9.3 7.8 5.1 75 1.9 SE 2 4 1 2 1014.3 1014.4 0.0
25/08:30pm 9.7 8.2 4.9 72 2.2 SSW 2 6 1 3 1014.2 1014.3 0.0
25/08:00pm 9.5 8.6 6.2 80 1.5 CALM 0 0 0 0 1014.1 1014.2 0.0
25/07:30pm 9.6 8.3 5.8 77 1.8 SW 2 4 1 2 1013.5 1013.6 0.0
25/07:00pm 9.5 8.5 5.5 76 1.8 CALM 0 0 0 0 1013.2 1013.3 0.0
25/06:30pm 9.5 7.7 5.3 75 1.9 WSW 4 6 2 3 1012.8 1012.9 0.0
25/06:00pm 9.9 8.0 4.7 70 2.4 WSW 4 6 2 3 1012.4 1012.5 0.0
25/05:30pm 10.8 8.3 4.7 66 2.8 WSW 7 13 4 7 1012.1 1012.2 0.0
25/05:00pm 11.1 8.2 4.8 65 2.9 WSW 9 15 5 8 1011.9 1012.0 0.0
25/04:30pm 11.6 8.3 4.8 63 3.1 WSW 11 22 6 12 1011.8 1011.9 0.0
25/04:00pm 12.3 7.9 4.8 60 3.5 W 17 24 9 13 1011.4 1011.6 0.0
25/03:30pm 12.7 8.7 4.7 58 3.7 WSW 15 24 8 13 1011.6 1011.7 0.0
25/03:00pm 12.7 9.1 6.7 67 2.9 SW 15 26 8 14 1011.4 1011.6 0.0
25/02:30pm 11.3 6.5 4.7 64 3.0 WSW 19 30 10 16 1011.8 1011.9 0.0
25/02:00pm 12.7 7.9 4.9 59 3.6 WSW 19 28 10 15 1011.7 1011.8 0.0
25/01:30pm 10.6 5.8 5.6 71 2.3 WSW 20 37 11 20 1011.7 1011.8 0.0
25/01:00pm 11.8 7.0 4.8 62 3.2 W 19 32 10 17 1011.6 1011.7 0.0
25/12:30pm 11.7 7.4 5.1 64 3.1 WSW 17 35 9 19 1011.7 1011.8 0.0
25/12:00pm 12.2 6.9 4.9 61 3.4 W 22 33 12 18 1011.8 1011.9 0.0
25/11:30am 11.5 6.4 4.3 61 3.3 W 20 30 11 16 1011.8 1011.9 0.0
25/11:00am 11.3 6.5 4.7 64 3.0 WSW 19 30 10 16 1011.7 1011.8 0.0
25/10:30am 10.4 5.5 5.0 69 2.5 WSW 20 33 11 18 1011.7 1011.8 0.0
25/10:00am 10.1 4.3 4.5 68 2.5 W 24 37 13 20 1011.7 1011.8 0.0
25/09:30am 10.1 4.8 5.1 71 2.3 W 22 37 12 20 1011.4 1011.6 0.0
25/09:00am 9.5 4.7 5.5 76 1.8 W 20 32 11 17 1011.3 1011.5 1.8
25/08:30am 8.4 3.4 4.6 77 1.7 W 20 28 11 15 1010.9 1011.0 1.8
25/08:00am 8.0 2.5 4.2 77 1.7 W 22 35 12 19 1010.5 1010.6 1.8
25/07:30am 7.1 3.0 4.1 81 1.3 WNW 15 22 8 12 1010.2 1010.3 1.8
25/07:00am 6.6 2.5 4.1 84 1.1 WNW 15 22 8 12 1010.0 1010.1 1.8
25/06:30am 6.3 1.8 4.0 85 1.0 WNW 17 26 9 14 1009.7 1009.8 1.8
25/06:00am 6.5 2.0 4.3 86 1.0 WNW 17 24 9 13 1009.3 1009.4 1.8
25/05:30am 6.9 2.5 4.7 86 1.0 WNW 17 24 9 13 1009.1 1009.2 1.8
25/05:00am 7.3 2.7 5.4 88 0.9 WNW 19 28 10 15 1008.8 1008.9 1.8
25/04:30am 7.8 3.3 6.3 90 0.7 W 19 32 10 17 1008.4 1008.5 1.8
25/04:00am 7.6 3.6 6.5 93 0.5 W 17 24 9 13 1008.2 1008.3 1.8
25/03:30am 8.0 3.7 6.9 93 0.5 W 19 32 10 17 1007.8 1007.9 1.8
25/03:00am 8.2 4.7 7.3 94 0.4 WNW 15 24 8 13 1007.7 1007.8 1.8
25/02:30am 8.6 5.2 7.7 94 0.4 W 15 22 8 12 1007.5 1007.5 1.8
25/02:00am 8.9 5.2 7.8 93 0.5 W 17 30 9 16 1007.6 1007.6 1.8
25/01:30am 9.2 5.9 8.1 93 0.5 W 15 24 8 13 1007.5 1007.5 1.8
25/01:00am 9.8 6.7 8.7 93 0.5 W 15 22 8 12 1007.4 1007.4 1.8
25/12:30am 10.2 8.0 9.3 94 0.5 W 11 19 6 10 1007.0 1007.1 1.8
25/12:00am 10.2 7.6 9.3 94 0.5 WSW 13 26 7 14 1006.8 1006.9 1.8
 
Date/Time
EST
Temp
°C
App
Temp
°C
Dew
Point
°C
Rel
Hum
%
Delta-T
°C
Wind Press
QNH
hPa
Press
MSL
hPa
Rain since
9am
mm
Dir  Spd
km/h
Gust
km/h
Spd
kts
Gust
kts
24/11:30pm 10.5 7.5 9.4 93 0.6 W 15 26 8 14 1006.7 1006.8 1.8
24/11:00pm 11.2 7.5 9.5 89 0.9 WNW 19 35 10 19 1006.5 1006.6 1.8
24/10:30pm 11.0 9.2 9.4 90 0.8 NW 9 13 5 7 1006.3 1006.4 1.6
24/10:00pm 11.2 8.2 9.3 88 1.0 NNW 15 24 8 13 1006.4 1006.5 1.4
24/09:30pm 11.4 9.5 9.0 85 1.2 NNW 9 15 5 8 1006.5 1006.6 1.2
24/09:00pm 11.3 8.6 9.0 86 1.2 N 13 17 7 9 1006.2 1006.3 1.2
24/08:30pm 11.8 8.3 8.6 81 1.6 NNW 17 24 9 13 1006.2 1006.3 1.0
24/08:00pm 12.0 8.6 9.0 82 1.5 N 17 28 9 15 1005.9 1006.0 1.0
24/07:30pm 11.7 8.7 9.4 86 1.2 N 15 20 8 11 1005.7 1005.8 0.8
24/07:00pm 11.8 8.4 9.2 84 1.3 N 17 28 9 15 1005.7 1005.8 0.6
24/06:30pm 12.7 7.9 8.8 77 2.0 N 24 33 13 18 1005.5 1005.6 0.0
24/06:00pm 13.5 9.5 8.4 71 2.6 N 19 26 10 14 1005.4 1005.5 0.0
24/05:30pm 13.6 9.6 8.4 71 2.6 N 19 28 10 15 1005.3 1005.4 0.0
24/05:00pm 13.8 8.8 8.2 69 2.8 N 24 41 13 22 1004.9 1005.0 0.0
24/04:30pm 15.0 10.1 7.1 59 3.9 N 22 35 12 19 1004.5 1004.6 0.0
24/04:00pm 15.1 9.1 7.2 59 4.0 N 28 43 15 23 1004.5 1004.6 0.0
24/03:30pm 15.2 9.9 7.0 58 4.1 NNW 24 43 13 23 1004.7 1004.8 0.0
24/03:00pm 15.4 10.5 6.9 57 4.2 N 22 46 12 25 1005.1 1005.2 0.0
24/02:30pm 15.8 10.2 7.1 56 4.3 NNW 26 41 14 22 1005.4 1005.5 0.0
24/02:00pm 15.8 9.8 7.1 56 4.4 NNW 28 41 15 22 1005.1 1005.2 0.0
24/01:30pm 16.4 10.4 7.1 54 4.7 N 28 43 15 23 1005.4 1005.5 0.0
24/01:00pm 16.5 9.6 6.3 51 5.1 NNW 32 43 17 23 1005.6 1005.7 0.0
24/12:30pm 17.4 11.4 7.2 51 5.2 N 28 41 15 22 1005.7 1005.8 0.0
24/12:00pm 17.0 12.0 7.9 55 4.7 NNW 24 39 13 21 1006.4 1006.5 0.0
24/11:30am 16.4 11.3 7.6 56 4.5 NNW 24 41 13 22 1006.9 1007.0 0.0
24/11:00am 16.1 10.5 7.1 55 4.5 NNW 26 39 14 21 1007.4 1007.4 0.0
24/10:30am 15.8 10.9 6.8 55 4.5 NNW 22 37 12 20 1007.5 1007.5 0.0
24/10:00am 15.5 10.3 7.3 58 4.1 NNW 24 39 13 21 1007.7 1007.8 0.0
24/09:30am 14.7 9.9 7.3 61 3.7 N 22 35 12 19 1007.8 1007.9 0.0
24/09:00am 13.1 8.7 7.5 69 2.8 N 20 30 11 16 1008.1 1008.2 0.2
24/08:30am 12.4 8.1 7.7 73 2.3 N 20 32 11 17 1008.6 1008.7 0.2
24/08:00am 10.9 6.6 7.2 78 1.8 N 19 24 10 13 1008.8 1008.9 0.2
24/07:30am 9.3 4.7 6.4 82 1.4 N 20 28 11 15 1009.1 1009.2 0.2
24/07:00am 8.2 4.4 6.0 86 1.0 N 15 24 8 13 1009.3 1009.4 0.2
24/06:30am 6.5 2.9 5.1 91 0.6 N 13 19 7 10 1009.2 1009.3 0.2
24/06:00am 6.1 2.8 4.7 91 0.6 N 11 17 6 9 1009.0 1009.1 0.2
24/05:30am 6.6 3.1 5.4 92 0.5 N 13 17 7 9 1009.2 1009.3 0.2
24/05:00am 6.5 3.1 5.8 95 0.3 N 13 17 7 9 1009.2 1009.3 0.2
24/04:30am 5.9 2.8 5.6 98 0.1 N 11 17 6 9 1009.1 1009.2 0.2
24/04:00am 5.4 2.6 5.1 98 0.1 N 9 13 5 7 1009.2 1009.3 0.2
24/03:30am 4.7 1.8 4.4 98 0.1 N 9 11 5 6 1009.3 1009.4 0.2
24/03:00am 4.4 1.8 4.1 98 0.1 N 7 11 4 6 1009.6 1009.7 0.2
24/02:30am 4.3 1.7 4.0 98 0.1 N 7 9 4 5 1009.9 1010.0 0.2
24/02:00am 4.7 2.1 4.3 97 0.2 N 7 9 4 5 1010.1 1010.2 0.2
24/01:30am 5.4 2.9 5.0 97 0.2 N 7 9 4 5 1010.4 1010.5 0.2
24/01:00am 6.2 3.9 5.8 97 0.2 N 7 9 4 5 1010.7 1010.8 0.2
24/12:30am 6.5 4.3 6.1 97 0.2 N 7 9 4 5 1010.8 1010.9 0.2
24/12:00am 6.7 4.5 6.3 97 0.2 N 7 9 4 5 1011.0 1011.1 0.2
 
Date/Time
EST
Temp
°C
App
Temp
°C
Dew
Point
°C
Rel
Hum
%
Delta-T
°C
Wind Press
QNH
hPa
Press
MSL
hPa
Rain since
9am
mm
Dir  Spd
km/h
Gust
km/h
Spd
kts
Gust
kts
23/11:30pm 6.4 4.2 6.0 97 0.2 N 7 9 4 5 1011.2 1011.4 0.2
23/11:00pm 6.2 3.9 5.6 96 0.3 N 7 7 4 4 1011.2 1011.4 0.2
23/10:30pm 7.0 5.0 6.3 95 0.3 N 6 7 3 4 1011.2 1011.4 0.2
23/10:00pm 7.2 5.1 6.5 95 0.3 NNW 7 9 4 5 1011.4 1011.6 0.2
23/09:30pm 7.5 5.5 6.4 93 0.5 N 6 6 3 3 1011.3 1011.5 0.2
23/09:00pm 8.2 6.4 7.0 92 0.6 N 6 6 3 3 1011.6 1011.7 0.2
23/08:30pm 9.1 8.1 7.5 90 0.8 NE 2 4 1 2 1011.6 1011.7 0.2
23/08:00pm 9.2 7.8 7.3 88 0.9 NE 4 6 2 3 1011.7 1011.8 0.2
23/07:30pm 10.0 9.2 8.1 88 0.9 ENE 2 4 1 2 1011.7 1011.8 0.2
23/07:00pm 10.1 8.5 8.0 87 1.0 ESE 6 7 3 4 1011.6 1011.7 0.2
23/06:30pm 10.7 9.0 8.3 85 1.2 ESE 7 9 4 5 1011.4 1011.6 0.2
23/06:00pm 11.2 8.7 8.4 83 1.4 ESE 11 13 6 7 1011.6 1011.7 0.2
23/05:30pm 12.0 8.9 8.8 81 1.6 SE 15 17 8 9 1011.6 1011.7 0.2
23/05:00pm 12.9 10.3 9.2 78 1.9 ESE 13 19 7 10 1011.6 1011.7 0.2
23/04:30pm 13.9 11.4 9.7 76 2.2 ESE 13 19 7 10 1011.4 1011.6 0.2
23/04:00pm 13.9 11.3 9.3 74 2.4 ESE 13 20 7 11 1011.4 1011.6 0.2
23/03:30pm 13.8 10.8 9.3 74 2.3 ESE 15 20 8 11 1011.8 1011.9 0.2
23/03:00pm 14.1 11.2 9.5 74 2.4 ESE 15 20 8 11 1012.0 1012.1 0.2
23/02:30pm 13.9 11.1 8.5 70 2.7 E 13 20 7 11 1012.4 1012.5 0.2
23/02:00pm 13.8 10.7 8.8 72 2.6 ESE 15 22 8 12 1012.9 1013.0 0.2
23/01:30pm 13.5 11.2 9.0 74 2.3 ESE 11 19 6 10 1013.4 1013.5 0.2
23/01:00pm 13.3 10.8 8.0 70 2.7 E 11 15 6 8 1013.9 1014.0 0.2
23/12:30pm 12.8 9.8 7.9 72 2.4 E 13 19 7 10 1014.5 1014.6 0.0
23/12:00pm 11.8 9.1 7.3 74 2.2 ENE 11 15 6 8 1015.2 1015.4 0.0
23/11:30am 11.5 8.3 7.0 74 2.2 ENE 13 19 7 10 1015.3 1015.5 0.0
23/11:00am 11.2 7.5 6.5 73 2.2 E 15 20 8 11 1015.7 1015.9 0.0
23/10:30am 11.1 7.8 6.6 74 2.2 ESE 13 19 7 10 1016.3 1016.4 0.0
23/10:00am 11.1 8.6 6.6 74 2.1 SE 9 13 5 7 1016.7 1016.8 0.0
23/09:30am 10.1 7.8 5.5 73 2.1 SE 7 11 4 6 1017.0 1017.1 0.0
23/09:00am 9.7 7.5 5.5 75 1.9 SE 6 9 3 5 1017.2 1017.3 0.0
23/08:30am 8.9 7.0 6.7 86 1.0 SE 6 9 3 5 1017.2 1017.3 0.0
23/08:00am 7.2 6.1 6.8 97 0.2 NW 2 2 1 1 1017.1 1017.2 0.0
23/07:30am 6.0 4.3 5.7 98 0.1 NNW 4 4 2 2 1017.3 1017.4 0.0
23/07:00am 4.8 2.8 4.5 98 0.1 NNE 4 4 2 2 1017.2 1017.3 0.0
23/06:30am 4.4 2.0 4.1 98 0.1 N 6 7 3 4 1017.2 1017.3 0.0
23/06:00am 3.7 1.9 3.4 98 0.1 N 2 4 1 2 1016.9 1017.0 0.0
23/05:30am 3.5 0.9 3.2 98 0.1 NNW 6 7 3 4 1016.9 1017.0 0.0
23/05:00am 2.7 -0.3 2.3 97 0.2 N 7 7 4 4 1016.9 1017.0 0.0
23/04:30am 2.8 -0.1 2.4 97 0.2 N 7 9 4 5 1016.9 1017.0 0.0
23/04:00am 3.1 0.2 2.5 96 0.2 NNW 7 9 4 5 1017.0 1017.1 0.0
23/03:30am 3.1 0.4 2.5 96 0.2 N 6 7 3 4 1017.1 1017.2 0.0
23/03:00am 3.3 0.6 2.6 95 0.3 NNW 6 7 3 4 1017.3 1017.4 0.0
23/02:30am 3.8 1.5 2.8 93 0.4 NNW 4 4 2 2 1017.6 1017.7 0.0
23/02:00am 4.9 2.7 3.4 90 0.6 W 4 6 2 3 1017.8 1017.9 0.0
23/01:30am 6.3 4.3 4.6 89 0.7 SSW 4 7 2 4 1018.1 1018.2 0.0
23/01:00am 6.6 5.2 5.4 92 0.5 NNW 2 2 1 1 1018.4 1018.6 0.0
23/12:30am 6.7 4.9 5.5 92 0.5 NNW 4 6 2 3 1018.6 1018.8 0.0
23/12:00am 6.9 5.9 5.5 91 0.6 CALM 0 2 0 1 1018.7 1018.9 0.0

Other Formats:

Comma delimited format used in spreadsheet applications
http://www.bom.gov.au/fwo/IDV60801/IDV60801.94863.axf

JavaScript Object Notation format (JSON) in row-major order
http://www.bom.gov.au/fwo/IDV60801/IDV60801.94863.json